Time;durP1;ratioP1;P1;durP2;ratioP2;P2;SDS_P1;SDS_P2;PMS_P1;PMS_P2;Temp;Humidity;BMP_temperature;BMP_pressure;BME280_temperature;BME280_humidity;BME280_pressure;Samples;Min_cycle;Max_cycle;Signal;HPM_P1;HPM_P2
2022/11/23 00:01:18;;;;;;;17.70;9.60;;;11.00;93.30;;;;;;5065793;28;21599;-77
2022/11/23 00:03:50;;;;;;;21.83;11.00;;;10.90;93.40;;;;;;5063850;28;20218;-79
2022/11/23 00:06:19;;;;;;;19.17;10.17;;;10.90;93.40;;;;;;5067943;28;20302;-78
2022/11/23 00:08:49;;;;;;;21.30;11.10;;;11.00;93.30;;;;;;5067310;28;20581;-78
2022/11/23 00:11:18;;;;;;;18.33;9.70;;;11.00;93.40;;;;;;5068207;28;20608;-78
2022/11/23 00:13:46;;;;;;;18.17;10.10;;;11.00;93.30;;;;;;5071024;28;20202;-78
2022/11/23 00:16:17;;;;;;;19.63;9.97;;;11.00;93.30;;;;;;5067925;28;20279;-79
2022/11/23 00:18:46;;;;;;;18.47;9.90;;;11.00;93.60;;;;;;5067609;28;20203;-78
2022/11/23 00:21:17;;;;;;;18.17;9.40;;;10.90;93.50;;;;;;5068061;28;20664;-78
2022/11/23 00:23:46;;;;;;;18.73;9.70;;;11.00;93.60;;;;;;5066824;28;20244;-77
2022/11/23 00:26:16;;;;;;;19.43;10.17;;;10.90;93.60;;;;;;5064353;28;20245;-78
2022/11/23 00:28:44;;;;;;;16.50;9.20;;;10.90;93.70;;;;;;5069724;28;20682;-77
2022/11/23 00:31:15;;;;;;;15.20;8.47;;;10.90;93.80;;;;;;5067876;28;20238;-78
2022/11/23 00:33:47;;;;;;;19.17;10.23;;;10.90;93.80;;;;;;5069082;28;20664;-78
2022/11/23 00:36:20;;;;;;;18.10;9.77;;;10.90;93.80;;;;;;5066962;28;20186;-78
2022/11/23 00:38:50;;;;;;;21.40;10.37;;;10.90;93.90;;;;;;5059521;28;20249;-77
2022/11/23 00:41:19;;;;;;;17.67;9.03;;;11.00;93.90;;;;;;5063859;28;20327;-78
2022/11/23 00:43:48;;;;;;;18.33;9.53;;;11.00;93.80;;;;;;5067290;28;20249;-78
2022/11/23 00:46:18;;;;;;;20.17;9.67;;;11.10;93.80;;;;;;5064621;28;20195;-78
2022/11/23 00:48:48;;;;;;;16.73;9.77;;;11.00;93.70;;;;;;5062398;28;20190;-78
2022/11/23 00:51:22;;;;;;;18.47;10.20;;;11.10;93.80;;;;;;5064938;28;20780;-78
2022/11/23 00:53:52;;;;;;;17.30;8.93;;;11.10;93.70;;;;;;5063622;28;20644;-77
2022/11/23 00:56:20;;;;;;;19.73;9.63;;;11.10;93.80;;;;;;5065334;28;20720;-78
2022/11/23 00:58:49;;;;;;;17.97;10.27;;;11.00;93.80;;;;;;5063128;28;20256;-80
2022/11/23 01:01:19;;;;;;;17.73;9.70;;;11.00;93.80;;;;;;5068681;28;20214;-80
2022/11/23 01:03:50;;;;;;;17.83;9.30;;;11.00;93.90;;;;;;5062116;28;20204;-78
2022/11/23 01:06:22;;;;;;;19.40;9.63;;;10.90;94.00;;;;;;5062408;28;20234;-78
2022/11/23 01:08:52;;;;;;;17.77;9.53;;;10.90;94.00;;;;;;5060852;28;20245;-78
2022/11/23 01:11:20;;;;;;;19.00;10.10;;;10.90;94.00;;;;;;5065494;28;20223;-79
2022/11/23 01:13:50;;;;;;;19.83;9.87;;;10.90;94.10;;;;;;5065182;28;20203;-78
2022/11/23 01:16:21;;;;;;;18.63;9.57;;;11.00;94.00;;;;;;5065265;28;20248;-78
2022/11/23 01:18:53;;;;;;;19.57;9.37;;;11.00;94.20;;;;;;5064382;28;20241;-77
2022/11/23 01:21:24;;;;;;;17.13;9.40;;;11.00;94.20;;;;;;5065724;28;20297;-78
2022/11/23 01:23:53;;;;;;;18.27;10.10;;;11.00;94.20;;;;;;5064405;28;20205;-78
2022/11/23 01:26:22;;;;;;;18.80;9.30;;;11.00;94.20;;;;;;5064084;28;20230;-79
2022/11/23 01:28:50;;;;;;;20.37;10.43;;;11.00;94.20;;;;;;5064832;28;20241;-78
2022/11/23 01:31:20;;;;;;;18.03;9.17;;;11.00;94.20;;;;;;5066572;28;20221;-78
2022/11/23 01:33:53;;;;;;;18.63;10.37;;;11.00;94.20;;;;;;5063881;28;20248;-78
2022/11/23 01:36:24;;;;;;;19.53;9.70;;;10.90;94.30;;;;;;5069454;28;20560;-80
2022/11/23 01:38:53;;;;;;;18.47;9.40;;;10.90;94.30;;;;;;5065617;28;20554;-78
2022/11/23 01:41:25;;;;;;;20.03;10.53;;;10.90;94.40;;;;;;5064321;28;20201;-79
2022/11/23 01:43:54;;;;;;;18.63;9.60;;;10.90;94.40;;;;;;5062864;28;20228;-77
2022/11/23 01:46:22;;;;;;;17.07;9.80;;;10.90;94.40;;;;;;5067159;28;20253;-77
2022/11/23 01:48:54;;;;;;;18.13;9.77;;;10.90;94.50;;;;;;5063095;28;20198;-78
2022/11/23 01:51:30;;;;;;;20.23;10.07;;;10.90;94.50;;;;;;5060716;28;20221;-77
2022/11/23 01:54:02;;;;;;;17.90;9.97;;;10.80;94.50;;;;;;5063876;28;20623;-78
2022/11/23 01:56:38;;;;;;;19.43;10.23;;;10.80;94.60;;;;;;5060006;28;20183;-77
2022/11/23 01:59:11;;;;;;;21.23;9.70;;;10.80;94.70;;;;;;5063206;28;20191;-78
2022/11/23 02:01:39;;;;;;;19.60;10.03;;;10.80;94.80;;;;;;5065970;28;20732;-77
2022/11/23 02:04:11;;;;;;;16.23;9.00;;;10.80;94.90;;;;;;5057787;28;20226;-77
2022/11/23 02:06:43;;;;;;;17.10;9.57;;;10.80;94.90;;;;;;5061663;28;20671;-79
2022/11/23 02:09:12;;;;;;;16.40;9.23;;;10.70;95.00;;;;;;5069085;28;20720;-79
2022/11/23 02:11:40;;;;;;;17.63;9.60;;;10.70;95.10;;;;;;5068376;28;20195;-78
2022/11/23 02:14:09;;;;;;;14.63;8.80;;;10.70;95.10;;;;;;5061758;28;20198;-80
2022/11/23 02:16:38;;;;;;;17.97;8.97;;;10.70;95.10;;;;;;5069015;28;20218;-78
2022/11/23 02:19:14;;;;;;;16.57;9.30;;;10.60;95.30;;;;;;5073292;28;20236;-78
2022/11/23 02:21:45;;;;;;;18.20;9.83;;;10.60;95.40;;;;;;5069370;28;20244;-79
2022/11/23 02:24:22;;;;;;;17.67;9.03;;;10.60;95.40;;;;;;5070534;28;20247;-79
2022/11/23 02:26:52;;;;;;;17.13;9.77;;;10.60;95.50;;;;;;5069004;28;20206;-79
2022/11/23 02:29:23;;;;;;;18.70;9.43;;;10.60;95.70;;;;;;5068599;28;20697;-78
2022/11/23 02:31:52;;;;;;;16.07;8.97;;;10.60;95.60;;;;;;5067520;28;20244;-79
2022/11/23 02:34:20;;;;;;;19.17;9.40;;;10.60;95.60;;;;;;5069381;28;20222;-79
2022/11/23 02:36:51;;;;;;;17.17;9.30;;;10.70;95.70;;;;;;5070953;28;20226;-78
2022/11/23 02:39:25;;;;;;;17.93;9.37;;;10.70;95.70;;;;;;5068396;28;20721;-78
2022/11/23 02:41:55;;;;;;;21.23;10.27;;;10.60;95.80;;;;;;5067818;28;20217;-78
2022/11/23 02:44:34;;;;;;;17.83;9.10;;;10.60;95.80;;;;;;5069260;28;20206;-78
2022/11/23 02:47:02;;;;;;;19.23;9.93;;;10.60;95.80;;;;;;5070181;28;20237;-79
2022/11/23 02:49:31;;;;;;;19.27;9.83;;;10.60;95.80;;;;;;5071582;28;20560;-79
2022/11/23 02:51:59;;;;;;;19.30;9.23;;;10.60;96.00;;;;;;5068400;28;20260;-78
2022/11/23 02:54:28;;;;;;;17.00;9.83;;;10.60;95.90;;;;;;5065888;28;20199;-79
2022/11/23 02:56:58;;;;;;;19.73;9.03;;;10.60;96.10;;;;;;5069771;28;20206;-78
2022/11/23 02:59:26;;;;;;;18.80;9.53;;;10.60;96.10;;;;;;5067931;28;20571;-77
2022/11/23 03:01:54;;;;;;;20.70;10.27;;;10.60;96.60;;;;;;5066279;28;20251;-78
2022/11/23 03:04:22;;;;;;;18.13;9.80;;;10.60;96.20;;;;;;5064004;28;20259;-80
2022/11/23 03:06:55;;;;;;;14.87;8.80;;;10.60;96.30;;;;;;5066567;28;20298;-78
2022/11/23 03:09:25;;;;;;;18.10;10.20;;;10.60;96.30;;;;;;5059600;28;20713;-78
2022/11/23 03:11:53;;;;;;;18.87;9.63;;;10.60;96.30;;;;;;5065071;28;20816;-79
2022/11/23 03:14:23;;;;;;;16.23;8.87;;;10.60;96.50;;;;;;5061017;28;20281;-78
2022/11/23 03:16:51;;;;;;;17.13;9.40;;;10.60;96.60;;;;;;5065711;28;20620;-80
2022/11/23 03:19:19;;;;;;;18.17;9.37;;;10.60;96.60;;;;;;5064118;28;20199;-78
2022/11/23 03:21:48;;;;;;;19.20;10.00;;;10.70;96.60;;;;;;5062152;28;20244;-79
2022/11/23 03:24:16;;;;;;;18.20;9.70;;;10.60;96.70;;;;;;5062017;28;20232;-78
2022/11/23 03:26:44;;;;;;;18.27;9.90;;;10.60;96.90;;;;;;5064874;28;20474;-78
2022/11/23 03:29:13;;;;;;;19.27;9.50;;;10.60;96.90;;;;;;5069627;28;20748;-78
2022/11/23 03:31:42;;;;;;;18.73;9.73;;;10.60;97.00;;;;;;5067532;28;20892;-78
2022/11/23 03:34:11;;;;;;;20.90;9.77;;;10.70;97.00;;;;;;5069015;28;20660;-79
2022/11/23 03:36:39;;;;;;;18.83;9.53;;;10.60;97.20;;;;;;5066275;28;20603;-78
2022/11/23 03:39:07;;;;;;;19.23;10.40;;;10.60;97.30;;;;;;5071847;28;20217;-78
2022/11/23 03:41:36;;;;;;;18.57;10.20;;;10.60;97.30;;;;;;5070933;28;20194;-78
2022/11/23 03:44:05;;;;;;;18.17;10.07;;;10.70;97.40;;;;;;5070764;28;20237;-78
2022/11/23 03:46:33;;;;;;;21.83;12.05;;;10.70;97.40;;;;;;5067691;28;20471;-79
2022/11/23 03:49:03;;;;;;;18.20;10.03;;;10.70;97.60;;;;;;5069057;28;20207;-77
2022/11/23 03:51:31;;;;;;;19.43;9.77;;;10.70;97.70;;;;;;5072320;28;20236;-77
2022/11/23 03:54:00;;;;;;;17.80;10.13;;;10.70;97.60;;;;;;5066870;28;20229;-77
2022/11/23 03:56:28;;;;;;;19.10;10.27;;;10.70;97.60;;;;;;5066345;28;20222;-78
2022/11/23 03:58:56;;;;;;;18.80;9.93;;;10.80;97.70;;;;;;5067364;28;20206;-78
2022/11/23 04:01:25;;;;;;;24.03;10.83;;;10.80;97.60;;;;;;5068890;28;20659;-78
2022/11/23 04:03:53;;;;;;;16.67;9.00;;;10.80;97.60;;;;;;5064745;28;20670;-78
2022/11/23 04:06:23;;;;;;;17.40;9.53;;;10.90;97.60;;;;;;5067797;28;20218;-79
2022/11/23 04:08:51;;;;;;;17.10;10.03;;;10.80;97.60;;;;;;5072342;28;20241;-79
2022/11/23 04:11:25;;;;;;;20.83;11.45;;;10.80;97.70;;;;;;5068582;28;20435;-79
2022/11/23 04:13:54;;;;;;;19.90;10.17;;;10.80;97.90;;;;;;5068213;28;20256;-79
2022/11/23 04:16:22;;;;;;;20.60;10.10;;;10.90;97.90;;;;;;5068851;28;20245;-79
2022/11/23 04:18:50;;;;;;;19.00;10.50;;;10.90;97.80;;;;;;5050785;28;20757;-78
2022/11/23 04:21:19;;;;;;;16.23;9.20;;;10.90;97.80;;;;;;5066400;28;20248;-79
2022/11/23 04:23:48;;;;;;;22.73;12.20;;;11.00;97.80;;;;;;5066995;28;20444;-79
2022/11/23 04:26:17;;;;;;;18.70;9.90;;;10.90;98.00;;;;;;5062788;28;20242;-82
2022/11/23 04:28:45;;;;;;;18.40;9.83;;;11.00;98.10;;;;;;5064002;28;20552;-79
2022/11/23 04:31:13;;;;;;;19.90;9.83;;;11.00;98.10;;;;;;5062699;28;20198;-78
2022/11/23 04:33:42;;;;;;;17.67;10.20;;;11.00;98.00;;;;;;5067287;28;20263;-80
2022/11/23 04:36:10;;;;;;;19.10;9.87;;;11.00;98.10;;;;;;5068842;28;20198;-78
2022/11/23 04:38:38;;;;;;;18.97;9.90;;;11.10;98.10;;;;;;5064735;28;20194;-78
2022/11/23 04:41:08;;;;;;;19.40;9.50;;;11.10;98.10;;;;;;5066511;28;20194;-78
2022/11/23 04:43:36;;;;;;;21.13;9.97;;;11.10;98.20;;;;;;5066781;28;20195;-78
2022/11/23 04:46:05;;;;;;;20.87;9.73;;;11.10;98.40;;;;;;5066387;28;20198;-79
2022/11/23 04:48:33;;;;;;;17.13;9.43;;;11.10;98.50;;;;;;5066483;28;20194;-80
2022/11/23 04:51:02;;;;;;;18.53;9.80;;;11.10;98.60;;;;;;5065040;28;20628;-80
2022/11/23 04:53:30;;;;;;;20.33;10.47;;;11.10;98.60;;;;;;5067873;28;20386;-79
2022/11/23 04:55:58;;;;;;;19.17;10.30;;;11.20;98.60;;;;;;5065215;28;20694;-80
2022/11/23 04:58:28;;;;;;;22.07;11.47;;;11.30;98.60;;;;;;5065357;28;20198;-79
2022/11/23 05:01:01;;;;;;;19.93;10.80;;;11.30;98.60;;;;;;5063313;28;20780;-79
2022/11/23 05:03:33;;;;;;;21.67;10.50;;;11.30;98.60;;;;;;5065642;28;20995;-80
2022/11/23 05:06:03;;;;;;;21.87;10.37;;;11.40;98.50;;;;;;5062825;28;20252;-79
2022/11/23 05:08:31;;;;;;;18.90;10.17;;;11.40;98.60;;;;;;5063967;28;20198;-79
2022/11/23 05:10:59;;;;;;;16.67;9.57;;;11.50;98.60;;;;;;5064057;28;20263;-79
2022/11/23 05:13:29;;;;;;;16.87;9.63;;;11.50;98.50;;;;;;5065292;28;20272;-79
2022/11/23 05:15:58;;;;;;;27.40;9.43;;;11.50;98.40;;;;;;5065228;28;20198;-80
2022/11/23 05:18:26;;;;;;;16.23;8.73;;;11.60;98.30;;;;;;5063838;28;20637;-79
2022/11/23 05:20:54;;;;;;;19.30;10.67;;;11.60;98.50;;;;;;5065194;28;20604;-80
2022/11/23 05:23:22;;;;;;;18.80;10.17;;;11.60;98.40;;;;;;5064295;28;20252;-78
2022/11/23 05:25:51;;;;;;;21.27;10.00;;;11.70;98.40;;;;;;5061856;28;20289;-80
2022/11/23 05:28:22;;;;;;;21.10;10.10;;;11.70;98.40;;;;;;5044257;28;20218;-78
2022/11/23 05:31:09;;;;;;;20.17;10.17;;;11.70;98.50;;;;;;5061056;28;20277;-79
2022/11/23 05:33:38;;;;;;;19.57;10.27;;;11.70;98.50;;;;;;5065083;28;20222;-80
2022/11/23 05:36:07;;;;;;;19.10;10.03;;;11.70;98.60;;;;;;5062891;28;20238;-79
2022/11/23 05:38:35;;;;;;;19.80;10.37;;;11.70;98.40;;;;;;5060096;28;20199;-79
2022/11/23 05:41:05;;;;;;;16.77;10.47;;;11.70;98.50;;;;;;5060578;28;20201;-78
2022/11/23 05:43:33;;;;;;;19.57;9.53;;;11.70;98.50;;;;;;5054793;28;20202;-78
2022/11/23 05:46:02;;;;;;;18.30;10.13;;;11.70;98.60;;;;;;5064270;28;20683;-80
2022/11/23 05:48:32;;;;;;;20.37;10.13;;;11.70;98.60;;;;;;5064663;28;20255;-79
2022/11/23 05:51:00;;;;;;;18.43;9.63;;;11.80;98.70;;;;;;5067385;28;20317;-78
2022/11/23 05:53:32;;;;;;;17.17;9.47;;;11.80;98.70;;;;;;5068241;28;20198;-79
2022/11/23 05:56:00;;;;;;;17.60;9.43;;;11.80;98.70;;;;;;5066506;28;20199;-79
2022/11/23 05:58:29;;;;;;;18.63;10.17;;;11.90;98.60;;;;;;5067023;28;21708;-79
2022/11/23 06:00:58;;;;;;;17.33;10.23;;;11.90;98.60;;;;;;5063285;28;20251;-78
2022/11/23 06:03:28;;;;;;;17.40;10.40;;;11.90;98.60;;;;;;5065786;28;20206;-79
2022/11/23 06:05:58;;;;;;;17.77;9.80;;;11.90;98.70;;;;;;5061215;28;20675;-80
2022/11/23 06:08:26;;;;;;;19.17;10.13;;;12.00;98.80;;;;;;5064285;28;20218;-79
2022/11/23 06:10:54;;;;;;;19.07;10.73;;;12.00;98.80;;;;;;5068293;28;20259;-80
2022/11/23 06:13:22;;;;;;;22.48;12.73;;;12.00;98.80;;;;;;5067842;28;20489;-79
2022/11/23 06:15:51;;;;;;;17.00;9.90;;;12.00;99.00;;;;;;5064268;28;20596;-79
2022/11/23 06:18:19;;;;;;;20.17;10.63;;;12.10;98.90;;;;;;5063229;28;21134;-81
2022/11/23 06:20:47;;;;;;;20.53;10.63;;;12.10;98.80;;;;;;5064721;28;20202;-81
2022/11/23 06:23:17;;;;;;;17.73;10.03;;;12.10;98.80;;;;;;5063132;28;20573;-80
2022/11/23 06:25:52;;;;;;;18.80;10.67;;;12.10;98.70;;;;;;5060694;28;20199;-82
2022/11/23 06:28:23;;;;;;;19.47;10.97;;;12.20;98.70;;;;;;5031909;28;20242;-80
2022/11/23 06:30:51;;;;;;;18.40;10.13;;;12.20;98.60;;;;;;5066491;28;20567;-79
2022/11/23 06:33:19;;;;;;;16.90;9.40;;;12.20;99.00;;;;;;5064815;28;20198;-79
2022/11/23 06:35:53;;;;;;;15.10;9.07;;;12.20;98.70;;;;;;5062898;28;20730;-80
2022/11/23 06:38:26;;;;;;;19.60;10.27;;;12.20;98.60;;;;;;5058661;28;20256;-79
2022/11/23 06:40:58;;;;;;;18.73;10.43;;;12.20;98.60;;;;;;5063574;28;20647;-81
2022/11/23 06:43:27;;;;;;;15.00;9.03;;;12.20;98.70;;;;;;5067351;28;20888;-81
2022/11/23 06:45:56;;;;;;;18.47;9.90;;;12.20;98.60;;;;;;5067858;28;20194;-80
2022/11/23 06:48:24;;;;;;;16.93;9.30;;;12.20;98.70;;;;;;5064835;28;22233;-78
2022/11/23 06:50:53;;;;;;;17.00;9.23;;;12.20;98.60;;;;;;5063259;28;20229;-81
2022/11/23 06:53:21;;;;;;;15.20;8.20;;;12.20;98.80;;;;;;5066646;28;20334;-79
2022/11/23 06:55:51;;;;;;;18.23;10.00;;;12.20;98.80;;;;;;5065468;28;20650;-81
2022/11/23 06:58:20;;;;;;;16.23;8.73;;;12.20;98.90;;;;;;5061959;28;20202;-80
2022/11/23 07:00:48;;;;;;;16.80;9.70;;;12.20;99.00;;;;;;5065966;28;20228;-80
2022/11/23 07:03:20;;;;;;;18.40;9.53;;;12.20;98.80;;;;;;5068274;28;20690;-81
2022/11/23 07:05:49;;;;;;;14.73;9.00;;;12.20;98.80;;;;;;5065720;28;20198;-81
2022/11/23 07:08:17;;;;;;;17.87;8.93;;;12.30;98.70;;;;;;5072637;28;20226;-79
2022/11/23 07:10:46;;;;;;;15.17;8.87;;;12.30;98.70;;;;;;5073467;28;20209;-82
2022/11/23 07:13:16;;;;;;;18.55;10.25;;;12.30;98.90;;;;;;5073243;28;20920;-82
2022/11/23 07:15:45;;;;;;;17.33;9.13;;;12.30;98.90;;;;;;5071122;28;20667;-80
2022/11/23 07:18:13;;;;;;;14.87;8.80;;;12.40;98.90;;;;;;5070089;28;20187;-79
2022/11/23 07:20:41;;;;;;;16.97;9.17;;;12.40;98.80;;;;;;5070453;28;20245;-80
2022/11/23 07:23:11;;;;;;;16.23;7.90;;;12.50;98.90;;;;;;5064697;28;20222;-80
2022/11/23 07:25:40;;;;;;;16.97;8.83;;;12.50;98.80;;;;;;5068481;28;20267;-80
2022/11/23 07:28:11;;;;;;;14.83;8.27;;;12.50;98.90;;;;;;5068060;28;20647;-80
2022/11/23 07:30:41;;;;;;;13.90;8.23;;;12.50;98.90;;;;;;5067236;28;20221;-80
2022/11/23 07:33:11;;;;;;;12.07;7.80;;;12.50;98.90;;;;;;5071154;28;20260;-81
2022/11/23 07:35:43;;;;;;;15.30;8.40;;;12.50;99.00;;;;;;5071441;28;20230;-81
2022/11/23 07:38:11;;;;;;;15.67;8.83;;;12.50;99.00;;;;;;5066906;28;20196;-81
2022/11/23 07:40:40;;;;;;;14.43;7.87;;;12.60;99.00;;;;;;5069971;28;20267;-82
2022/11/23 07:43:09;;;;;;;14.83;8.30;;;12.60;98.90;;;;;;5071220;28;20206;-81
2022/11/23 07:45:38;;;;;;;15.63;7.83;;;12.60;99.00;;;;;;5069682;28;20670;-79
2022/11/23 07:48:09;;;;;;;13.63;8.77;;;12.70;98.90;;;;;;5065441;28;20214;-81
2022/11/23 07:50:39;;;;;;;14.17;8.23;;;12.70;98.80;;;;;;5064527;28;20565;-81
2022/11/23 07:53:08;;;;;;;14.53;8.17;;;12.70;98.90;;;;;;5066396;28;20341;-79
2022/11/23 07:55:36;;;;;;;12.47;7.40;;;12.80;98.80;;;;;;5066695;28;20222;-80
2022/11/23 07:58:05;;;;;;;15.23;7.60;;;12.80;98.80;;;;;;5065008;28;20655;-80
2022/11/23 08:00:33;;;;;;;16.70;7.23;;;12.80;98.70;;;;;;5066430;28;20298;-81
2022/11/23 08:03:02;;;;;;;13.77;7.53;;;12.80;98.70;;;;;;5062426;28;20667;-79
2022/11/23 08:05:51;;;;;;;15.23;7.53;;;12.90;98.70;;;;;;5060781;28;20198;-79
2022/11/23 08:08:20;;;;;;;11.30;6.87;;;12.90;98.60;;;;;;5069408;28;20214;-79
2022/11/23 08:10:48;;;;;;;13.83;7.73;;;13.00;98.60;;;;;;5062125;28;20198;-80
2022/11/23 08:13:22;;;;;;;13.63;7.80;;;13.00;98.50;;;;;;5062333;28;20450;-80
2022/11/23 08:15:50;;;;;;;11.40;7.10;;;13.00;98.70;;;;;;5066452;28;20647;-82
2022/11/23 08:18:23;;;;;;;13.00;7.13;;;13.00;98.60;;;;;;5072303;28;20191;-79
2022/11/23 08:20:53;;;;;;;15.53;7.70;;;13.00;98.50;;;;;;5068571;28;20258;-79
2022/11/23 08:23:22;;;;;;;10.70;7.17;;;13.00;98.50;;;;;;5063412;28;20194;-82
2022/11/23 08:25:50;;;;;;;14.13;7.83;;;13.10;98.50;;;;;;5065754;28;20202;-80
2022/11/23 08:28:19;;;;;;;13.17;7.03;;;13.10;98.50;;;;;;5065362;28;20219;-80
2022/11/23 08:30:48;;;;;;;14.77;8.57;;;13.10;98.60;;;;;;5062766;28;20927;-81
2022/11/23 08:33:20;;;;;;;11.93;6.93;;;13.10;98.80;;;;;;5060230;28;20238;-80
2022/11/23 08:35:52;;;;;;;13.73;7.50;;;13.20;98.80;;;;;;5063475;28;20264;-81
2022/11/23 08:38:20;;;;;;;12.97;7.57;;;13.20;98.70;;;;;;5066385;28;20229;-81
2022/11/23 08:40:48;;;;;;;15.37;8.40;;;13.20;98.60;;;;;;5058107;28;20195;-81
2022/11/23 08:43:17;;;;;;;13.10;7.72;;;13.20;98.60;;;;;;5060027;28;20477;-81
2022/11/23 08:45:45;;;;;;;11.40;6.87;;;13.30;98.70;;;;;;5063457;28;20207;-81
2022/11/23 08:48:13;;;;;;;12.10;7.20;;;13.30;98.70;;;;;;5056762;28;20659;-82
2022/11/23 08:50:43;;;;;;;13.00;7.40;;;13.40;98.60;;;;;;5065297;28;20233;-79
2022/11/23 08:53:12;;;;;;;15.40;7.00;;;13.40;98.60;;;;;;5058625;28;20540;-81
2022/11/23 08:55:41;;;;;;;15.02;8.68;;;13.50;98.60;;;;;;5061122;28;20471;-80
2022/11/23 08:58:09;;;;;;;16.07;9.17;;;13.50;98.70;;;;;;5060247;28;20296;-80
2022/11/23 09:00:40;;;;;;;13.47;7.73;;;13.50;98.70;;;;;;5059371;28;20252;-81
2022/11/23 09:03:09;;;;;;;13.70;8.13;;;13.60;98.60;;;;;;5056985;28;20203;-81
2022/11/23 09:05:38;;;;;;;12.43;7.77;;;13.60;98.60;;;;;;5064971;28;20732;-80
2022/11/23 09:08:07;;;;;;;13.97;8.37;;;13.70;98.50;;;;;;5059298;28;20652;-80
2022/11/23 09:10:38;;;;;;;18.43;8.30;;;13.70;98.50;;;;;;5059984;28;20247;-81
2022/11/23 09:13:06;;;;;;;13.87;8.40;;;13.80;98.50;;;;;;5066754;28;20199;-79
2022/11/23 09:15:35;;;;;;;13.67;7.63;;;13.80;98.50;;;;;;5061751;28;20203;-80
2022/11/23 09:18:03;;;;;;;16.90;8.10;;;13.80;98.40;;;;;;5059230;28;20206;-80
2022/11/23 09:20:31;;;;;;;15.03;7.93;;;13.90;98.40;;;;;;5067063;28;20195;-80
2022/11/23 09:23:00;;;;;;;14.00;7.90;;;14.00;98.40;;;;;;5056359;28;20203;-80
2022/11/23 09:25:28;;;;;;;15.63;8.70;;;14.00;98.30;;;;;;5064085;28;20247;-80
2022/11/23 09:27:59;;;;;;;13.40;8.50;;;14.00;98.20;;;;;;5066342;28;20230;-80
2022/11/23 09:30:27;;;;;;;14.33;8.87;;;14.00;98.10;;;;;;5058493;28;20244;-79
2022/11/23 09:32:56;;;;;;;20.13;10.82;;;13.90;98.10;;;;;;5055993;28;20483;-79
2022/11/23 09:35:25;;;;;;;15.63;8.67;;;14.00;98.30;;;;;;5063770;28;20224;-81
2022/11/23 09:37:57;;;;;;;14.33;8.87;;;14.00;98.30;;;;;;5068179;28;20252;-81
2022/11/23 09:40:29;;;;;;;15.23;9.30;;;14.00;98.20;;;;;;5067477;28;20194;-80
2022/11/23 09:43:17;;;;;;;18.97;9.30;;;14.00;98.10;;;;;;5063546;28;20252;-81
2022/11/23 09:45:49;;;;;;;16.33;9.07;;;14.10;98.10;;;;;;5063004;28;20271;-81
2022/11/23 09:48:39;;;;;;;17.27;9.30;;;14.10;98.20;;;;;;5066182;28;20539;-80
2022/11/23 10:09:18;;;;;;;17.40;10.10;;;14.00;97.70;;;;;;5108743;27;20554;-78
2022/11/23 10:12:08;;;;;;;17.03;9.63;;;14.40;98.90;;;;;;5092348;28;20197;-75
2022/11/23 10:14:53;;;;;;;15.57;9.50;;;14.40;98.40;;;;;;5073548;28;20806;-78
2022/11/23 10:17:36;;;;;;;15.63;9.27;;;14.40;98.20;;;;;;5085368;28;20215;-78
2022/11/23 10:20:21;;;;;;;15.60;9.40;;;14.50;98.20;;;;;;5084003;28;20225;-75
2022/11/23 10:22:58;;;;;;;14.77;9.20;;;14.50;98.10;;;;;;5081059;28;20225;-79
2022/11/23 10:25:31;;;;;;;17.00;9.10;;;14.50;98.00;;;;;;5081715;28;20342;-79
2022/11/23 10:28:14;;;;;;;18.87;9.53;;;14.60;97.90;;;;;;5084858;28;20325;-79
2022/11/23 10:30:43;;;;;;;15.33;9.27;;;14.60;97.80;;;;;;5085495;28;20225;-79
2022/11/23 10:33:22;;;;;;;16.60;9.73;;;14.70;97.70;;;;;;5085401;28;20718;-79
2022/11/23 10:35:50;;;;;;;19.77;10.63;;;14.80;97.70;;;;;;5079337;28;20186;-78
2022/11/23 10:38:20;;;;;;;18.23;10.63;;;14.80;97.60;;;;;;5078731;28;20370;-78
2022/11/23 10:41:01;;;;;;;15.90;9.57;;;14.80;97.60;;;;;;5082567;28;20191;-78
2022/11/23 10:43:34;;;;;;;15.93;9.97;;;14.90;97.60;;;;;;5088777;28;20189;-77
2022/11/23 10:46:31;;;;;;;18.43;9.93;;;15.00;97.50;;;;;;5085194;28;20189;-78
2022/11/23 10:49:15;;;;;;;20.40;10.33;;;14.90;97.30;;;;;;5080880;28;20185;-79
2022/11/23 10:51:51;;;;;;;16.93;9.93;;;15.00;97.20;;;;;;5081409;28;20684;-77
2022/11/23 10:54:23;;;;;;;16.67;9.23;;;15.00;97.10;;;;;;5084344;28;20190;-78
2022/11/23 10:56:56;;;;;;;21.17;11.13;;;15.00;97.10;;;;;;5081463;28;20193;-79
2022/11/23 11:04:11;;;;;;;19.87;10.97;;;15.00;97.10;;;;;;5089792;28;20199;-78
2022/11/23 11:06:40;;;;;;;19.87;10.47;;;15.10;97.40;;;;;;5087713;28;20708;-78
2022/11/23 11:09:20;;;;;;;18.23;10.23;;;15.10;97.00;;;;;;5100053;28;20709;-78
2022/11/23 11:11:53;;;;;;;17.97;10.60;;;15.00;96.90;;;;;;5086505;28;20229;-78
2022/11/23 11:14:23;;;;;;;16.47;9.97;;;15.10;97.00;;;;;;5094799;28;20243;-79
2022/11/23 11:16:54;;;;;;;17.47;9.50;;;15.10;97.10;;;;;;5089612;28;20190;-78
2022/11/23 11:19:27;;;;;;;18.57;10.07;;;15.10;97.00;;;;;;5088458;28;20208;-77
2022/11/23 11:21:56;;;;;;;16.70;9.50;;;15.10;96.90;;;;;;5093487;28;20194;-78
2022/11/23 11:24:31;;;;;;;20.77;9.87;;;15.10;96.90;;;;;;5087954;28;20576;-77
2022/11/23 11:27:04;;;;;;;14.73;9.00;;;15.20;96.90;;;;;;5091058;28;20244;-79
2022/11/23 11:29:50;;;;;;;19.77;10.27;;;15.20;96.80;;;;;;5089730;28;20197;-79
2022/11/23 11:32:24;;;;;;;19.60;10.67;;;15.20;96.80;;;;;;5082464;28;20666;-79
2022/11/23 11:34:55;;;;;;;18.70;10.17;;;15.20;96.80;;;;;;5091085;28;20194;-78
2022/11/23 11:37:31;;;;;;;20.57;10.23;;;15.20;96.80;;;;;;5083679;28;20289;-79
2022/11/23 11:40:10;;;;;;;18.43;10.33;;;15.30;96.80;;;;;;5096924;28;20190;-78
2022/11/23 11:42:43;;;;;;;23.10;11.83;;;15.30;96.80;;;;;;5093810;28;20229;-78
2022/11/23 11:45:19;;;;;;;24.40;12.10;;;15.30;96.70;;;;;;5094356;28;20229;-79
2022/11/23 11:47:54;;;;;;;21.17;11.80;;;15.30;96.60;;;;;;5095314;28;20286;-79
2022/11/23 11:50:27;;;;;;;19.70;11.67;;;15.30;96.60;;;;;;5093153;28;20189;-79
2022/11/23 11:53:06;;;;;;;23.83;12.00;;;15.30;96.60;;;;;;5092710;28;20239;-79
2022/11/23 11:55:46;;;;;;;23.00;11.87;;;15.40;96.60;;;;;;5087321;28;20217;-79
2022/11/23 11:58:17;;;;;;;22.17;12.20;;;15.40;96.50;;;;;;5090952;28;20186;-79
2022/11/23 12:00:48;;;;;;;18.70;11.03;;;15.40;96.50;;;;;;5087293;28;20292;-76
2022/11/23 12:03:27;;;;;;;22.77;11.70;;;15.40;96.50;;;;;;5091538;28;20247;-77
2022/11/23 12:06:03;;;;;;;21.27;11.73;;;15.40;96.50;;;;;;5087882;28;20232;-79
2022/11/23 12:08:39;;;;;;;22.53;12.33;;;15.40;96.40;;;;;;5091259;28;20224;-78
2022/11/23 12:11:13;;;;;;;24.17;12.63;;;15.40;96.40;;;;;;5091092;28;20190;-79
2022/11/23 12:13:45;;;;;;;24.77;12.63;;;15.40;96.40;;;;;;5096876;28;20701;-79
2022/11/23 12:16:28;;;;;;;21.77;12.30;;;15.40;96.40;;;;;;5087532;28;20741;-79
2022/11/23 12:19:15;;;;;;;22.93;11.83;;;15.40;96.40;;;;;;5091173;28;20182;-78
2022/11/23 12:22:20;;;;;;;22.80;12.83;;;15.30;96.30;;;;;;5094012;28;20190;-77
2022/11/23 12:24:57;;;;;;;21.40;12.57;;;15.30;96.30;;;;;;5095429;28;20238;-77
2022/11/23 12:27:36;;;;;;;20.97;11.33;;;15.30;96.30;;;;;;5091919;28;20255;-79
2022/11/23 12:52:51;;;;;;;22.33;12.87;;;15.30;96.80;;;;;;6182404;22;1326993;-77
2022/11/23 12:55:24;;;;;;;26.13;13.50;;;15.30;96.70;;;;;;6221250;23;20162;-77
2022/11/23 12:58:01;;;;;;;24.90;13.73;;;15.30;96.70;;;;;;6219062;23;20163;-77
2022/11/23 13:00:36;;;;;;;23.73;13.10;;;15.30;96.60;;;;;;6221345;23;20193;-78
2022/11/23 13:03:32;;;;;;;23.63;12.70;;;15.30;96.60;;;;;;6223306;23;20166;-78
2022/11/23 13:06:28;;;;;;;26.20;12.47;;;15.30;96.50;;;;;;6220845;23;20285;-79
2022/11/23 13:09:20;;;;;;;27.03;13.60;;;15.30;96.50;;;;;;6220937;23;20189;-77
2022/11/23 13:12:08;;;;;;;26.10;11.97;;;15.30;96.50;;;;;;6220827;23;20486;-78
2022/11/23 13:14:44;;;;;;;22.23;12.93;;;15.30;96.40;;;;;;6220057;23;20167;-77
2022/11/23 13:17:25;;;;;;;26.87;12.80;;;15.30;96.30;;;;;;6219117;23;20261;-79
2022/11/23 13:20:40;;;;;;;26.10;13.27;;;15.30;96.30;;;;;;6217135;23;20197;-78
2022/11/23 13:23:09;;;;;;;27.20;13.63;;;15.30;96.30;;;;;;6218854;23;20546;-77
2022/11/23 13:25:39;;;;;;;26.70;12.77;;;15.30;96.30;;;;;;6220282;23;20167;-77
2022/11/23 13:28:29;;;;;;;22.60;12.10;;;15.30;96.30;;;;;;6221005;23;20211;-77
2022/11/23 13:31:19;;;;;;;21.53;12.07;;;15.30;96.30;;;;;;6220251;23;20700;-77
2022/11/23 13:33:49;;;;;;;24.13;12.37;;;15.30;96.30;;;;;;6221099;23;20596;-77
2022/11/23 13:36:45;;;;;;;24.60;11.80;;;15.30;96.20;;;;;;6220419;23;20171;-77
2022/11/23 13:40:04;;;;;;;27.30;13.33;;;15.30;96.20;;;;;;6195694;23;20723;-77
2022/11/23 13:42:35;;;;;;;27.70;13.53;;;15.30;96.20;;;;;;6215575;23;20160;-77